Time;durP1;ratioP1;P1;durP2;ratioP2;P2;SDS_P1;SDS_P2;PMS_P1;PMS_P2;Temp;Humidity;BMP_temperature;BMP_pressure;BME280_temperature;BME280_humidity;BME280_pressure;Samples;Min_cycle;Max_cycle;Signal;HPM_P1;HPM_P2
2023/06/29 00:01:05;;;;;;;0.73;0.70;;;;;;;18.52;nan;100545.75;4965736;28;20210;-92
2023/06/29 00:03:34;;;;;;;0.77;0.77;;;;;;;18.67;nan;100553.22;4970508;28;20178;-92
2023/06/29 00:06:01;;;;;;;0.77;0.77;;;;;;;18.77;nan;100549.03;4994416;28;20205;-92
2023/06/29 00:08:28;;;;;;;0.43;0.43;;;;;;;18.68;nan;100552.03;4967164;28;20273;-91
2023/06/29 00:10:57;;;;;;;0.33;0.33;;;;;;;18.67;nan;100545.72;4974615;28;20186;-92
2023/06/29 00:13:23;;;;;;;0.97;0.90;;;;;;;18.75;nan;100554.16;4975968;28;20190;-92
2023/06/29 00:15:49;;;;;;;1.07;1.07;;;;;;;18.60;nan;100547.47;4989692;28;20245;-92
2023/06/29 00:18:18;;;;;;;1.10;1.10;;;;;;;18.72;nan;100550.13;4968316;28;20182;-91
2023/06/29 00:20:43;;;;;;;1.07;1.07;;;;;;;18.72;nan;100552.91;4985776;28;20190;-92
2023/06/29 00:23:09;;;;;;;0.30;0.30;;;;;;;18.67;nan;100547.66;4971014;28;20186;-92
2023/06/29 00:25:34;;;;;;;1.53;1.43;;;;;;;18.60;nan;100544.72;4987053;28;20293;-91
2023/06/29 00:28:00;;;;;;;6.33;2.00;;;;;;;18.63;nan;100555.03;4992010;28;20197;-91
2023/06/29 00:30:26;;;;;;;5.63;2.03;;;;;;;18.69;nan;100548.91;4964963;28;20206;-92
2023/06/29 00:32:51;;;;;;;1.10;1.10;;;;;;;18.71;nan;100556.84;4990321;28;20606;-91
2023/06/29 00:35:17;;;;;;;4.00;1.17;;;;;;;18.69;nan;100550.88;4972068;28;20214;-92
2023/06/29 00:37:42;;;;;;;1.10;1.10;;;;;;;18.55;nan;100548.56;4973469;28;20193;-92
2023/06/29 00:40:09;;;;;;;0.97;0.97;;;;;;;18.53;nan;100547.34;4979985;28;20210;-92
2023/06/29 00:42:35;;;;;;;0.77;0.77;;;;;;;18.55;nan;100542.25;4963498;28;20201;-92
2023/06/29 00:45:02;;;;;;;2.10;1.50;;;;;;;18.60;nan;100533.63;4972228;28;20222;-92
2023/06/29 00:47:28;;;;;;;0.60;0.60;;;;;;;18.57;nan;100534.38;4970890;28;20187;-92
2023/06/29 00:49:53;;;;;;;0.20;0.20;;;;;;;18.60;nan;100539.19;4972181;28;20179;-92
2023/06/29 00:52:19;;;;;;;0.87;0.87;;;;;;;18.71;nan;100532.72;4987549;28;20258;-92
2023/06/29 00:54:45;;;;;;;0.97;0.97;;;;;;;18.64;nan;100540.88;4988513;28;20217;-93
2023/06/29 00:57:10;;;;;;;0.07;0.07;;;;;;;18.70;nan;100531.13;4980185;28;20277;-92
2023/06/29 00:59:38;;;;;;;0.17;0.17;;;;;;;18.68;nan;100532.66;4971558;28;20193;-92
2023/06/29 01:02:04;;;;;;;0.30;0.30;;;;;;;18.64;nan;100535.34;4970900;28;20213;-91
2023/06/29 01:04:32;;;;;;;0.43;0.43;;;;;;;18.73;nan;100529.59;4987428;28;20701;-91
2023/06/29 01:07:06;;;;;;;0.00;0.00;;;;;;;18.62;nan;100523.00;4987641;28;20645;-91
2023/06/29 01:09:33;;;;;;;0.40;0.40;;;;;;;18.57;nan;100526.06;4968061;28;20182;-92
2023/06/29 01:12:00;;;;;;;1.60;1.50;;;;;;;18.52;nan;100521.63;4975351;28;20182;-93
2023/06/29 01:14:26;;;;;;;0.00;0.00;;;;;;;18.67;nan;100528.31;4987776;28;20214;-92
2023/06/29 01:16:55;;;;;;;2.47;2.37;;;;;;;18.65;nan;100519.53;4970291;28;20280;-92
2023/06/29 01:19:31;;;;;;;0.40;0.40;;;;;;;18.62;nan;100514.69;4970170;28;20273;-93
2023/06/29 01:22:08;;;;;;;0.20;0.20;;;;;;;18.68;nan;100524.38;4970286;28;20185;-93
2023/06/29 01:24:45;;;;;;;0.00;0.00;;;;;;;18.65;nan;100514.00;4983610;28;20229;-92
2023/06/29 01:27:14;;;;;;;0.27;0.27;;;;;;;18.68;nan;100516.06;4980310;28;20192;-92
2023/06/29 01:29:43;;;;;;;0.10;0.10;;;;;;;18.63;nan;100505.22;4984270;28;20656;-92
2023/06/29 01:32:10;;;;;;;1.20;1.20;;;;;;;18.63;nan;100499.69;4986990;28;20197;-92
2023/06/29 01:34:37;;;;;;;2.10;1.83;;;;;;;18.44;nan;100495.75;4986121;28;20266;-92
2023/06/29 01:37:09;;;;;;;0.87;0.87;;;;;;;18.37;nan;100503.94;4987233;28;20207;-91
2023/06/29 01:39:44;;;;;;;1.57;1.47;;;;;;;18.32;nan;100500.63;4987221;28;20248;-92
2023/06/29 01:42:11;;;;;;;0.73;0.73;;;;;;;18.43;nan;100505.22;4978457;28;20236;-92
2023/06/29 01:44:37;;;;;;;0.77;0.77;;;;;;;18.39;nan;100498.84;4973812;28;20213;-92
2023/06/29 01:47:06;;;;;;;0.73;0.73;;;;;;;18.36;nan;100504.25;4964992;28;20195;-92
2023/06/29 01:49:33;;;;;;;1.73;1.73;;;;;;;18.40;nan;100500.44;4985703;28;20648;-91
2023/06/29 01:51:58;;;;;;;1.77;1.67;;;;;;;18.34;nan;100493.56;4975266;28;20187;-92
2023/06/29 01:54:24;;;;;;;0.50;0.50;;;;;;;18.38;nan;100496.44;4965147;28;20209;-91
2023/06/29 01:56:49;;;;;;;1.40;1.30;;;;;;;18.50;nan;100490.72;4980758;28;20185;-92
2023/06/29 01:59:14;;;;;;;1.07;1.07;;;;;;;18.57;nan;100490.09;4967788;28;20645;-91
2023/06/29 02:01:40;;;;;;;2.90;2.70;;;;;;;18.67;nan;100497.84;4963547;28;20211;-92
2023/06/29 02:04:06;;;;;;;1.57;1.47;;;;;;;18.70;nan;100492.38;4970398;28;20182;-92
2023/06/29 02:06:31;;;;;;;0.40;0.40;;;;;;;18.57;nan;100477.06;4959641;28;20202;-92
2023/06/29 02:08:56;;;;;;;0.30;0.30;;;;;;;18.46;nan;100487.09;4973994;28;20189;-91
2023/06/29 02:11:22;;;;;;;3.40;1.60;;;;;;;18.42;nan;100481.50;4974239;28;20186;-92
2023/06/29 02:13:47;;;;;;;1.57;1.47;;;;;;;18.43;nan;100474.81;4959339;28;20229;-92
2023/06/29 02:16:13;;;;;;;0.53;0.53;;;;;;;18.57;nan;100482.59;4984302;28;20272;-92
2023/06/29 02:18:38;;;;;;;1.50;1.40;;;;;;;18.63;nan;100474.78;4971941;28;20186;-91
2023/06/29 02:21:04;;;;;;;2.23;1.70;;;;;;;18.48;nan;100467.38;4966218;28;20289;-91
2023/06/29 02:23:29;;;;;;;0.43;0.43;;;;;;;18.58;nan;100475.09;4976985;28;20181;-91
2023/06/29 02:25:55;;;;;;;2.43;2.23;;;;;;;18.58;nan;100472.31;4984243;28;20198;-91
2023/06/29 02:28:21;;;;;;;1.73;1.63;;;;;;;18.63;nan;100467.31;4968427;28;20186;-92
2023/06/29 02:30:46;;;;;;;2.63;2.43;;;;;;;18.65;nan;100472.47;4978011;28;20267;-92
2023/06/29 02:33:11;;;;;;;1.63;1.53;;;;;;;18.72;nan;100464.34;4966940;28;20248;-92
2023/06/29 02:35:36;;;;;;;1.47;1.37;;;;;;;18.63;nan;100461.78;4984983;28;20213;-91
2023/06/29 02:38:02;;;;;;;2.00;1.90;;;;;;;18.69;nan;100474.19;4983655;28;20218;-92
2023/06/29 02:40:27;;;;;;;8.03;1.60;;;;;;;18.67;nan;100473.75;4974532;28;20182;-91
2023/06/29 02:42:53;;;;;;;1.33;1.27;;;;;;;18.71;nan;100476.56;4966633;28;20190;-92
2023/06/29 02:45:18;;;;;;;0.80;0.80;;;;;;;18.60;nan;100473.56;4970292;28;20198;-92
2023/06/29 02:47:43;;;;;;;16.77;1.20;;;;;;;18.63;nan;100472.84;4964386;28;20186;-92
2023/06/29 02:50:09;;;;;;;0.87;0.87;;;;;;;18.82;nan;100469.28;4966635;28;20178;-92
2023/06/29 02:52:34;;;;;;;1.40;1.30;;;;;;;18.62;nan;100468.44;4962003;28;20188;-91
2023/06/29 02:54:59;;;;;;;2.03;1.93;;;;;;;18.65;nan;100469.72;4964180;28;20210;-92
2023/06/29 02:57:25;;;;;;;1.93;1.83;;;;;;;18.55;nan;100464.75;4977038;28;20198;-92
2023/06/29 02:59:50;;;;;;;1.10;1.10;;;;;;;18.69;nan;100463.09;4984063;28;20182;-92
2023/06/29 03:02:15;;;;;;;6.43;2.50;;;;;;;18.61;nan;100457.75;4972195;28;20213;-92
2023/06/29 03:04:42;;;;;;;5.90;1.57;;;;;;;18.60;nan;100461.69;4988528;28;20751;-92
2023/06/29 03:07:07;;;;;;;0.83;0.83;;;;;;;18.75;nan;100463.59;4991223;28;20198;-92
2023/06/29 03:09:32;;;;;;;0.10;0.10;;;;;;;18.77;nan;100454.91;4990934;28;20190;-92
2023/06/29 03:12:00;;;;;;;0.00;0.00;;;;;;;18.80;nan;100460.53;4979851;28;20193;-92
2023/06/29 03:14:26;;;;;;;1.23;1.23;;;;;;;18.89;nan;100457.53;4984965;28;20198;-92
2023/06/29 03:16:51;;;;;;;0.20;0.20;;;;;;;18.83;nan;100462.56;4984257;28;20177;-92
2023/06/29 03:19:16;;;;;;;0.77;0.77;;;;;;;18.86;nan;100466.56;4965576;28;20189;-92
2023/06/29 03:21:42;;;;;;;1.50;1.13;;;;;;;18.93;nan;100458.38;4981567;28;20190;-92
2023/06/29 03:24:07;;;;;;;0.80;0.80;;;;;;;18.80;nan;100463.28;4965483;28;20192;-92
2023/06/29 03:26:32;;;;;;;0.20;0.20;;;;;;;18.80;nan;100457.75;4957354;28;20210;-92
2023/06/29 03:28:57;;;;;;;0.30;0.30;;;;;;;18.79;nan;100458.13;4972659;28;20214;-92
2023/06/29 03:31:23;;;;;;;0.30;0.30;;;;;;;18.88;nan;100462.28;4981537;28;20631;-92
2023/06/29 03:33:48;;;;;;;0.77;0.77;;;;;;;18.85;nan;100463.00;4981225;28;20198;-91
2023/06/29 03:36:15;;;;;;;0.40;0.40;;;;;;;18.81;nan;100456.63;4975457;28;20199;-92
2023/06/29 03:38:40;;;;;;;0.43;0.43;;;;;;;18.81;nan;100462.16;4986153;28;20196;-92
2023/06/29 03:41:06;;;;;;;4.13;2.03;;;;;;;18.60;nan;100453.38;4975317;28;20273;-92
2023/06/29 03:43:31;;;;;;;0.90;0.90;;;;;;;18.44;nan;100459.00;4971094;28;20190;-92
2023/06/29 03:45:59;;;;;;;2.10;2.00;;;;;;;18.60;nan;100467.22;4972748;28;20266;-91
2023/06/29 03:48:27;;;;;;;2.53;0.87;;;;;;;18.60;nan;100456.16;4955766;28;20189;-92
2023/06/29 03:50:54;;;;;;;2.47;2.27;;;;;;;18.56;nan;100455.28;4963332;28;20263;-92
2023/06/29 03:53:20;;;;;;;0.47;0.47;;;;;;;18.51;nan;100447.25;4975663;28;20254;-92
2023/06/29 03:55:45;;;;;;;0.10;0.10;;;;;;;18.60;nan;100450.63;4979097;28;20742;-92
2023/06/29 03:58:10;;;;;;;1.37;1.30;;;;;;;18.72;nan;100453.25;4983739;28;20174;-92
2023/06/29 04:00:36;;;;;;;0.40;0.40;;;;;;;18.66;nan;100446.41;4967243;28;20206;-92
2023/06/29 04:03:01;;;;;;;0.00;0.00;;;;;;;18.72;nan;100448.53;4983705;28;20677;-92
2023/06/29 04:05:27;;;;;;;0.57;0.57;;;;;;;18.86;nan;100450.75;4982397;28;20202;-92
2023/06/29 04:07:52;;;;;;;0.23;0.23;;;;;;;18.80;nan;100443.09;4959518;28;20716;-92
2023/06/29 04:10:18;;;;;;;0.23;0.20;;;;;;;18.79;nan;100442.31;4974775;28;20186;-92
2023/06/29 04:12:43;;;;;;;0.10;0.10;;;;;;;18.98;nan;100444.25;4959503;28;20194;-92
2023/06/29 04:15:09;;;;;;;1.07;1.07;;;;;;;19.11;nan;100442.91;4989382;23;20575;-87
2023/06/29 04:17:34;;;;;;;2.13;2.13;;;;;;;19.06;nan;100442.41;4951964;29;20654;-88
2023/06/29 04:20:00;;;;;;;1.03;1.03;;;;;;;19.02;nan;100440.38;4965353;28;20711;-89
2023/06/29 04:22:25;;;;;;;0.83;0.83;;;;;;;19.08;nan;100449.16;4963339;28;20197;-87
2023/06/29 04:24:50;;;;;;;0.70;0.70;;;;;;;19.02;nan;100445.13;4963285;28;20183;-87
2023/06/29 04:27:16;;;;;;;0.87;0.87;;;;;;;19.10;nan;100441.31;4955412;29;20271;-88
2023/06/29 04:29:41;;;;;;;3.93;1.40;;;;;;;19.16;nan;100444.56;4956270;28;20192;-88
2023/06/29 04:32:06;;;;;;;1.77;1.67;;;;;;;19.14;nan;100441.38;4971348;28;20186;-88
2023/06/29 04:34:32;;;;;;;0.47;0.47;;;;;;;19.19;nan;100449.38;4955035;29;20210;-88
2023/06/29 04:37:02;;;;;;;0.00;0.00;;;;;;;19.15;nan;100440.19;4955031;28;20213;-87
2023/06/29 04:39:28;;;;;;;0.63;0.63;;;;;;;19.27;nan;100443.59;4956186;28;20182;-87
2023/06/29 04:42:02;;;;;;;0.13;0.13;;;;;;;19.29;nan;100448.75;4956227;28;20205;-88
2023/06/29 04:44:31;;;;;;;0.00;0.00;;;;;;;19.30;nan;100445.63;4948081;29;20186;-88
2023/06/29 04:46:59;;;;;;;0.00;0.00;;;;;;;19.30;nan;100445.63;4955350;28;20261;-88
2023/06/29 04:49:27;;;;;;;0.67;0.50;;;;;;;19.33;nan;100441.28;4963382;28;20537;-90
2023/06/29 04:51:55;;;;;;;0.30;0.30;;;;;;;19.46;nan;100444.69;4956792;28;20190;-88
2023/06/29 04:54:21;;;;;;;0.10;0.10;;;;;;;19.45;nan;100445.84;4967865;28;20218;-87
2023/06/29 04:56:47;;;;;;;1.37;1.27;;;;;;;19.33;nan;100438.53;4958352;28;20265;-87
2023/06/29 04:59:13;;;;;;;0.10;0.10;;;;;;;19.54;nan;100429.78;4954464;29;20583;-88
2023/06/29 05:01:38;;;;;;;1.30;0.77;;;;;;;19.44;nan;100433.16;4954678;29;20336;-88
2023/06/29 05:04:03;;;;;;;0.50;0.50;;;;;;;19.56;nan;100439.34;4954687;29;20194;-89
2023/06/29 05:06:29;;;;;;;0.70;0.70;;;;;;;19.68;nan;100432.78;4970337;28;20206;-87
2023/06/29 05:08:54;;;;;;;0.00;0.00;;;;;;;19.75;nan;100430.13;4954350;28;20237;-88
2023/06/29 05:11:19;;;;;;;0.00;0.00;;;;;;;19.81;nan;100434.16;4955520;28;20657;-89
2023/06/29 05:13:45;;;;;;;0.23;0.23;;;;;;;19.66;nan;100431.53;4951169;29;20187;-87
2023/06/29 05:16:10;;;;;;;0.67;0.63;;;;;;;19.82;nan;100429.44;4960860;28;20218;-88
2023/06/29 05:18:37;;;;;;;0.10;0.10;;;;;;;19.76;nan;100430.91;4962163;28;20209;-88
2023/06/29 05:21:03;;;;;;;0.73;0.73;;;;;;;19.82;nan;100427.47;4954137;29;20190;-89
2023/06/29 05:23:29;;;;;;;0.00;0.00;;;;;;;19.86;nan;100427.50;4955477;29;20186;-89
2023/06/29 05:25:54;;;;;;;0.00;0.00;;;;;;;19.95;nan;100422.47;4954012;28;20214;-89
2023/06/29 05:28:20;;;;;;;0.00;0.00;;;;;;;20.03;nan;100412.28;4953994;29;20195;-88
2023/06/29 05:30:45;;;;;;;0.00;0.00;;;;;;;20.14;nan;100419.56;4970073;28;20190;-88
2023/06/29 05:33:10;;;;;;;0.00;0.00;;;;;;;20.20;nan;100417.25;4955467;28;20190;-88
2023/06/29 05:35:36;;;;;;;0.00;0.00;;;;;;;20.16;nan;100405.31;4953971;29;20819;-88
2023/06/29 05:38:01;;;;;;;0.10;0.10;;;;;;;20.18;nan;100405.72;4955092;28;20218;-88
2023/06/29 05:40:27;;;;;;;0.70;0.43;;;;;;;20.28;nan;100402.31;4953510;29;20217;-89
2023/06/29 05:42:52;;;;;;;0.37;0.37;;;;;;;20.28;nan;100401.50;4953724;29;20265;-88
2023/06/29 05:45:17;;;;;;;0.00;0.00;;;;;;;20.28;nan;100395.94;4969851;28;20623;-89
2023/06/29 05:47:43;;;;;;;0.30;0.30;;;;;;;20.25;nan;100400.25;4953805;29;20202;-88
2023/06/29 05:50:09;;;;;;;0.30;0.30;;;;;;;20.19;nan;100391.47;4953407;29;20622;-88
2023/06/29 05:52:34;;;;;;;0.77;0.77;;;;;;;20.18;nan;100402.97;4954872;28;20191;-88
2023/06/29 05:55:00;;;;;;;0.10;0.10;;;;;;;19.98;nan;100402.31;4953386;29;20668;-88
2023/06/29 05:57:25;;;;;;;0.40;0.40;;;;;;;20.13;nan;100403.31;4953539;29;20217;-89
2023/06/29 05:59:51;;;;;;;2.57;2.37;;;;;;;20.11;nan;100412.00;4953339;29;20576;-88
2023/06/29 06:02:17;;;;;;;0.70;0.70;;;;;;;20.21;nan;100408.53;4969773;28;20190;-88
2023/06/29 06:04:42;;;;;;;0.00;0.00;;;;;;;20.28;nan;100418.16;4953975;29;20183;-88
2023/06/29 06:07:07;;;;;;;1.13;0.63;;;;;;;20.27;nan;100413.78;4953380;29;20213;-88
2023/06/29 06:09:33;;;;;;;1.83;1.73;;;;;;;20.26;nan;100409.41;4959667;28;20191;-88
2023/06/29 06:11:58;;;;;;;6.87;1.73;;;;;;;20.45;nan;100403.72;4969292;28;20217;-88
2023/06/29 06:14:23;;;;;;;0.47;0.47;;;;;;;20.42;nan;100401.69;4954602;29;20210;-88
2023/06/29 06:16:48;;;;;;;2.90;1.57;;;;;;;20.39;nan;100405.19;4954340;28;20218;-89
2023/06/29 06:19:14;;;;;;;1.23;1.13;;;;;;;20.41;nan;100400.91;4952372;28;20249;-88
2023/06/29 06:21:39;;;;;;;11.97;4.37;;;;;;;20.44;nan;100404.88;4961233;28;20187;-88
2023/06/29 06:24:04;;;;;;;1.00;0.80;;;;;;;20.32;nan;100396.78;4969213;28;20186;-88
2023/06/29 06:26:30;;;;;;;0.33;0.33;;;;;;;20.34;nan;100392.44;4949710;29;20207;-88
2023/06/29 06:28:55;;;;;;;4.00;1.23;;;;;;;20.43;nan;100395.78;4949521;28;20191;-89
2023/06/29 06:31:20;;;;;;;0.27;0.27;;;;;;;20.66;nan;100392.03;4954182;29;20697;-88
2023/06/29 06:33:45;;;;;;;0.57;0.57;;;;;;;20.75;nan;100386.97;4953067;29;20190;-87
2023/06/29 06:36:11;;;;;;;1.37;1.27;;;;;;;20.88;nan;100382.75;4952961;28;20700;-88
2023/06/29 06:38:36;;;;;;;1.07;0.80;;;;;;;20.88;nan;100381.94;4952941;29;20550;-88
2023/06/29 06:41:01;;;;;;;0.20;0.20;;;;;;;20.94;nan;100374.84;4953803;28;20193;-89
2023/06/29 06:43:27;;;;;;;1.37;1.30;;;;;;;21.03;nan;100373.34;4969727;28;20195;-88
2023/06/29 06:45:55;;;;;;;0.03;0.03;;;;;;;21.03;nan;100370.56;4955130;28;20200;-89
2023/06/29 06:48:21;;;;;;;0.00;0.00;;;;;;;21.17;nan;100378.22;4953539;28;20189;-89
2023/06/29 06:50:46;;;;;;;0.60;0.60;;;;;;;21.23;nan;100382.22;4969981;28;20269;-90
2023/06/29 06:53:11;;;;;;;0.37;0.37;;;;;;;21.29;nan;100375.19;4956316;29;20222;-88
2023/06/29 06:55:37;;;;;;;4.70;2.07;;;;;;;21.23;nan;100371.13;4963619;28;20238;-88
2023/06/29 06:58:02;;;;;;;7.27;3.43;;;;;;;21.18;nan;100374.28;4960020;28;20251;-89
2023/06/29 07:00:28;;;;;;;2.43;2.23;;;;;;;21.10;nan;100375.38;4958103;29;20182;-88
2023/06/29 07:02:53;;;;;;;1.27;1.27;;;;;;;21.03;nan;100370.56;4960806;29;20245;-88
2023/06/29 07:05:18;;;;;;;12.90;1.80;;;;;;;20.99;nan;100363.41;4959560;29;20265;-89
2023/06/29 07:07:46;;;;;;;2.57;2.27;;;;;;;21.05;nan;100381.31;4958103;29;20186;-88
2023/06/29 07:10:11;;;;;;;0.00;0.00;;;;;;;21.28;nan;100381.13;4970949;28;20186;-88
2023/06/29 07:12:37;;;;;;;0.23;0.23;;;;;;;21.37;nan;100376.03;4960665;28;20277;-89
2023/06/29 07:15:02;;;;;;;1.97;1.33;;;;;;;21.53;nan;100382.09;4954414;28;20692;-88
2023/06/29 07:17:28;;;;;;;0.90;0.90;;;;;;;21.44;nan;100370.53;4972302;28;20198;-88
2023/06/29 07:19:53;;;;;;;0.40;0.40;;;;;;;21.44;nan;100376.09;4969696;28;20217;-88
2023/06/29 07:22:20;;;;;;;1.60;1.50;;;;;;;21.54;nan;100377.31;4954737;28;20187;-88
2023/06/29 07:24:45;;;;;;;12.07;1.73;;;;;;;21.50;nan;100366.19;4952814;29;20183;-89
2023/06/29 07:27:11;;;;;;;1.07;1.07;;;;;;;21.50;nan;100363.41;4953142;29;20203;-88
2023/06/29 07:29:36;;;;;;;0.00;0.00;;;;;;;21.68;nan;100360.72;4953663;28;20266;-89
2023/06/29 07:32:01;;;;;;;0.67;0.67;;;;;;;21.80;nan;100365.16;4972573;28;20661;-88
2023/06/29 07:34:27;;;;;;;1.43;1.33;;;;;;;21.82;nan;100357.22;4957503;28;20672;-88
2023/06/29 07:36:53;;;;;;;0.23;0.10;;;;;;;21.88;nan;100342.56;4956608;29;20309;-88
2023/06/29 07:39:18;;;;;;;0.43;0.43;;;;;;;21.84;nan;100340.94;4955997;29;20619;-89
2023/06/29 07:41:43;;;;;;;0.37;0.37;;;;;;;21.93;nan;100344.16;4961137;28;20196;-88
2023/06/29 07:44:09;;;;;;;3.47;1.40;;;;;;;21.92;nan;100343.38;4956145;29;20182;-88
2023/06/29 07:46:34;;;;;;;0.10;0.10;;;;;;;21.98;nan;100344.56;4956262;28;20210;-90
2023/06/29 07:49:00;;;;;;;1.03;1.03;;;;;;;22.09;nan;100349.44;4955695;29;20738;-88
2023/06/29 07:51:31;;;;;;;1.80;1.70;;;;;;;22.21;nan;100337.94;4956065;29;20196;-88
2023/06/29 07:53:57;;;;;;;0.20;0.20;;;;;;;22.32;nan;100343.56;4955679;29;20216;-88
2023/06/29 07:56:22;;;;;;;0.97;0.93;;;;;;;22.47;nan;100339.59;4956105;28;20733;-88
2023/06/29 07:58:47;;;;;;;0.40;0.40;;;;;;;22.61;nan;100349.97;4956243;28;20192;-88
2023/06/29 08:01:13;;;;;;;0.20;0.20;;;;;;;22.74;nan;100351.19;4956734;29;20198;-89
2023/06/29 08:03:38;;;;;;;0.50;0.50;;;;;;;22.77;nan;100340.03;4956176;29;20552;-88
2023/06/29 08:06:03;;;;;;;0.60;0.60;;;;;;;22.69;nan;100344.00;4955645;28;20216;-88
2023/06/29 08:08:29;;;;;;;0.83;0.83;;;;;;;22.57;nan;100338.84;4955877;29;20185;-88
2023/06/29 08:10:55;;;;;;;0.30;0.30;;;;;;;22.56;nan;100338.00;4955553;29;20188;-88
2023/06/29 08:13:20;;;;;;;0.73;0.73;;;;;;;22.39;nan;100324.06;4955797;29;20181;-88
2023/06/29 08:15:45;;;;;;;1.07;1.03;;;;;;;22.29;nan;100331.22;4955837;28;20753;-88
2023/06/29 08:18:10;;;;;;;0.57;0.57;;;;;;;22.33;nan;100337.59;4955857;29;20192;-88
2023/06/29 08:20:36;;;;;;;1.80;1.70;;;;;;;22.29;nan;100324.84;4955562;29;20223;-88
2023/06/29 08:23:01;;;;;;;1.63;1.53;;;;;;;22.47;nan;100325.69;4955510;29;20311;-88
2023/06/29 08:25:27;;;;;;;2.37;0.30;;;;;;;22.60;nan;100328.91;4955640;28;20753;-88
2023/06/29 08:27:52;;;;;;;0.60;0.60;;;;;;;22.30;nan;100321.69;4971809;28;20190;-89
2023/06/29 08:30:18;;;;;;;2.03;1.63;;;;;;;22.40;nan;100332.03;4955269;29;20182;-88
2023/06/29 08:32:43;;;;;;;1.70;1.60;;;;;;;22.55;nan;100330.84;4952226;28;20184;-88
2023/06/29 08:35:09;;;;;;;7.67;1.93;;;;;;;22.76;nan;100326.53;4954862;29;20196;-88
2023/06/29 08:37:35;;;;;;;0.00;0.00;;;;;;;23.01;nan;100329.34;4955174;29;20199;-88
2023/06/29 08:40:00;;;;;;;1.10;1.10;;;;;;;23.32;nan;100322.94;4956030;28;20181;-89
2023/06/29 08:42:26;;;;;;;1.97;1.87;;;;;;;23.18;nan;100308.22;4955598;28;20184;-89
2023/06/29 08:44:52;;;;;;;1.27;1.27;;;;;;;23.02;nan;100301.06;4955448;28;20188;-88
2023/06/29 08:47:18;;;;;;;0.80;0.80;;;;;;;23.01;nan;100316.22;4955507;29;20702;-89
2023/06/29 08:49:45;;;;;;;0.17;0.17;;;;;;;23.13;nan;100326.94;4955051;29;20180;-90
2023/06/29 08:52:20;;;;;;;1.77;1.33;;;;;;;23.22;nan;100317.38;4954928;29;20215;-88
2023/06/29 08:54:47;;;;;;;3.10;0.87;;;;;;;23.07;nan;100313.81;4956522;28;20209;-88
2023/06/29 08:57:12;;;;;;;1.53;1.43;;;;;;;23.15;nan;100312.63;4955011;28;20575;-88
2023/06/29 08:59:38;;;;;;;1.40;1.10;;;;;;;22.96;nan;100319.38;4970898;28;20190;-88
2023/06/29 09:02:05;;;;;;;1.23;1.13;;;;;;;22.95;nan;100330.94;4954805;28;20189;-89
2023/06/29 09:04:30;;;;;;;0.27;0.27;;;;;;;23.17;nan;100328.94;4954778;29;20289;-88
2023/06/29 09:06:56;;;;;;;11.23;1.00;;;;;;;23.23;nan;100321.75;4971276;28;20297;-90
2023/06/29 09:09:21;;;;;;;1.30;0.77;;;;;;;23.20;nan;100322.56;4970797;28;20667;-88
2023/06/29 09:11:47;;;;;;;5.20;1.47;;;;;;;23.18;nan;100322.97;4954574;29;20184;-88
2023/06/29 09:14:12;;;;;;;0.70;0.70;;;;;;;23.19;nan;100315.38;4954262;29;20200;-88
2023/06/29 09:16:50;;;;;;;2.13;1.33;;;;;;;23.15;nan;100316.19;4951091;29;20263;-88
2023/06/29 09:19:16;;;;;;;1.13;1.13;;;;;;;23.02;nan;100317.00;4954588;29;20182;-88
2023/06/29 09:21:45;;;;;;;0.63;0.63;;;;;;;23.22;nan;100309.81;4970250;28;20192;-87
2023/06/29 09:24:11;;;;;;;1.70;1.60;;;;;;;23.15;nan;100310.63;4954211;29;20232;-88
2023/06/29 09:26:36;;;;;;;1.67;0.83;;;;;;;23.36;nan;100314.56;4954287;28;20292;-89
2023/06/29 09:29:03;;;;;;;1.10;1.10;;;;;;;23.40;nan;100309.75;4953841;29;20199;-88
2023/06/29 09:31:32;;;;;;;2.47;2.23;;;;;;;23.42;nan;100315.72;4954005;29;20228;-89
2023/06/29 09:34:20;;;;;;;1.40;1.30;;;;;;;23.30;nan;100305.03;4970007;28;20309;-88
2023/06/29 09:36:47;;;;;;;0.00;0.00;;;;;;;23.43;nan;100314.53;4959131;28;20231;-89
2023/06/29 09:39:12;;;;;;;0.40;0.40;;;;;;;23.13;nan;100301.03;4953790;29;20208;-88
2023/06/29 09:41:56;;;;;;;0.53;0.53;;;;;;;23.06;nan;100303.84;4954002;29;20186;-88
2023/06/29 09:44:25;;;;;;;0.17;0.17;;;;;;;23.23;nan;100307.81;4953687;29;20192;-89
2023/06/29 09:46:53;;;;;;;0.47;0.47;;;;;;;23.23;nan;100305.81;4955328;28;20206;-88
2023/06/29 09:49:20;;;;;;;2.00;1.90;;;;;;;23.10;nan;100296.28;4953682;29;20193;-88
2023/06/29 09:51:48;;;;;;;0.00;0.00;;;;;;;23.21;nan;100299.84;4953918;29;20195;-88
2023/06/29 09:54:14;;;;;;;0.07;0.07;;;;;;;23.45;nan;100318.53;4968876;28;20401;-88
2023/06/29 09:56:40;;;;;;;1.53;1.43;;;;;;;23.39;nan;100314.53;4953584;28;20752;-88
2023/06/29 09:59:11;;;;;;;1.43;0.90;;;;;;;23.37;nan;100314.16;4961216;28;20189;-89
2023/06/29 10:01:38;;;;;;;1.47;1.37;;;;;;;23.26;nan;100312.59;4961765;28;20251;-88
2023/06/29 10:04:04;;;;;;;2.50;0.70;;;;;;;23.20;nan;100309.41;4953484;29;20189;-88
2023/06/29 10:06:43;;;;;;;0.10;0.10;;;;;;;23.13;nan;100312.19;4969611;28;20212;-88
2023/06/29 10:09:10;;;;;;;1.73;1.63;;;;;;;23.18;nan;100309.03;4953234;29;20331;-89
2023/06/29 10:11:37;;;;;;;2.13;1.60;;;;;;;23.02;nan;100306.66;4953426;29;20193;-87
2023/06/29 10:14:06;;;;;;;5.97;1.77;;;;;;;23.01;nan;100304.28;4953294;29;20212;-90
2023/06/29 10:16:36;;;;;;;0.93;0.73;;;;;;;23.16;nan;100300.28;4981582;23;20228;-91
2023/06/29 10:19:18;;;;;;;0.87;0.87;;;;;;;23.30;nan;100297.47;4964351;28;20192;-92
2023/06/29 10:21:45;;;;;;;0.30;0.30;;;;;;;23.33;nan;100301.44;4968498;28;20279;-92
2023/06/29 10:24:22;;;;;;;2.90;2.03;;;;;;;23.27;nan;100300.22;4957305;28;20179;-92
2023/06/29 10:26:48;;;;;;;2.07;1.83;;;;;;;23.09;nan;100295.47;4967180;28;20371;-92
2023/06/29 10:29:14;;;;;;;0.27;0.27;;;;;;;23.29;nan;100300.63;4970966;28;20694;-93
2023/06/29 10:31:48;;;;;;;1.43;1.40;;;;;;;23.28;nan;100294.25;4968490;28;20266;-92
2023/06/29 10:34:14;;;;;;;1.40;0.93;;;;;;;23.16;nan;100283.53;4964286;28;20689;-91
2023/06/29 10:36:46;;;;;;;0.73;0.73;;;;;;;23.29;nan;100295.03;4971462;28;20206;-92
2023/06/29 10:39:45;;;;;;;0.00;0.00;;;;;;;23.45;nan;100284.28;4980915;28;20187;-92
2023/06/29 10:42:32;;;;;;;1.40;1.30;;;;;;;23.35;nan;100279.50;4955374;28;20185;-92
2023/06/29 10:44:58;;;;;;;0.67;0.67;;;;;;;23.24;nan;100281.53;4954421;29;20187;-91
2023/06/29 10:47:27;;;;;;;0.83;0.83;;;;;;;23.17;nan;100282.34;4971545;28;20209;-92
2023/06/29 10:50:11;;;;;;;5.77;3.13;;;;;;;23.21;nan;100279.53;4970346;28;20191;-91
2023/06/29 10:52:42;;;;;;;1.13;1.13;;;;;;;23.26;nan;100274.34;4961518;28;20303;-92
2023/06/29 10:55:20;;;;;;;1.97;1.53;;;;;;;23.33;nan;100276.34;4972147;28;20695;-92
2023/06/29 10:57:48;;;;;;;2.13;1.93;;;;;;;23.10;nan;100263.63;4966100;28;20211;-91
2023/06/29 11:00:36;;;;;;;0.60;0.60;;;;;;;23.16;nan;100275.19;4974718;28;20279;-92
2023/06/29 11:03:04;;;;;;;0.63;0.50;;;;;;;23.05;nan;100263.25;4974286;28;20190;-92
2023/06/29 11:05:33;;;;;;;2.10;0.57;;;;;;;23.13;nan;100271.19;4971252;28;20551;-92
2023/06/29 11:07:58;;;;;;;0.77;0.77;;;;;;;23.11;nan;100267.22;4954915;29;20242;-91
2023/06/29 11:10:23;;;;;;;0.97;0.97;;;;;;;23.16;nan;100264.03;4954405;29;20287;-92
2023/06/29 11:12:55;;;;;;;1.43;1.43;;;;;;;23.16;nan;100272.41;4969977;28;20201;-92
2023/06/29 11:15:22;;;;;;;0.47;0.47;;;;;;;23.20;nan;100266.81;4970316;28;20221;-92
2023/06/29 11:17:51;;;;;;;2.53;2.33;;;;;;;23.27;nan;100264.78;4970634;28;20227;-92
2023/06/29 11:20:19;;;;;;;1.97;1.87;;;;;;;23.30;nan;100260.41;4970970;28;20200;-92
2023/06/29 11:22:45;;;;;;;1.87;1.37;;;;;;;23.25;nan;100264.38;4961507;28;20291;-92
2023/06/29 11:25:14;;;;;;;0.53;0.53;;;;;;;23.33;nan;100265.19;4975258;28;20186;-92
2023/06/29 11:27:44;;;;;;;1.90;1.80;;;;;;;23.39;nan;100257.97;4969192;28;20297;-92
2023/06/29 11:30:10;;;;;;;1.53;1.50;;;;;;;23.51;nan;100265.13;4971297;28;20190;-92
2023/06/29 11:32:37;;;;;;;1.23;1.23;;;;;;;23.50;nan;100255.16;4967941;28;20189;-92
2023/06/29 11:35:10;;;;;;;7.43;2.40;;;;;;;23.44;nan;100252.81;4956175;28;20211;-92
2023/06/29 11:37:36;;;;;;;0.60;0.60;;;;;;;23.52;nan;100258.34;4972530;28;20213;-92
2023/06/29 11:40:08;;;;;;;0.00;0.00;;;;;;;23.66;nan;100249.94;4966756;28;20190;-93